createdAt,value
2018-04-23T00:01:05.980Z,15.44
2018-04-23T00:04:09.236Z,15.45
2018-04-23T00:07:12.511Z,15.49
2018-04-23T00:10:16.551Z,15.51
2018-04-23T00:13:19.845Z,15.50
2018-04-23T00:16:23.867Z,15.36
2018-04-23T00:19:27.137Z,15.35
2018-04-23T00:22:30.406Z,15.46
2018-04-23T00:25:33.696Z,15.46
2018-04-23T00:28:36.976Z,15.39
2018-04-23T00:31:40.282Z,15.34
2018-04-23T00:34:43.700Z,15.08
2018-04-23T00:37:46.955Z,14.90
2018-04-23T00:40:50.281Z,14.99
2018-04-23T00:43:53.556Z,14.96
2018-04-23T00:46:57.456Z,15.06
2018-04-23T00:50:00.763Z,15.05
2018-04-23T00:53:21.937Z,14.99
2018-04-23T00:56:25.221Z,14.93
2018-04-23T00:59:28.507Z,14.96
2018-04-23T01:02:31.812Z,14.94
2018-04-23T01:05:35.854Z,14.99
2018-04-23T01:08:39.133Z,14.98
2018-04-23T01:11:42.410Z,14.99
2018-04-23T01:14:45.673Z,15.04
2018-04-23T01:17:49.703Z,14.96
2018-04-23T01:20:52.969Z,14.98
2018-04-23T01:23:56.990Z,14.90
2018-04-23T01:27:01.317Z,14.91
2018-04-23T01:30:05.328Z,14.98
2018-04-23T01:33:09.356Z,15.02
2018-04-23T01:36:12.627Z,15.04
2018-04-23T01:39:15.923Z,15.09
2018-04-23T01:42:19.202Z,15.14
2018-04-23T01:45:22.486Z,15.09
2018-04-23T01:48:25.735Z,15.10
2018-04-23T01:51:29.794Z,15.11
2018-04-23T01:54:33.066Z,15.10
2018-04-23T01:57:36.332Z,15.04
2018-04-23T02:00:39.610Z,15.04
2018-04-23T02:03:42.867Z,14.99
2018-04-23T02:06:46.161Z,15.05
2018-04-23T02:09:49.433Z,15.09
2018-04-23T02:12:54.704Z,15.04
2018-04-23T02:15:58.044Z,15.04
2018-04-23T02:19:01.565Z,15.06
2018-04-23T02:22:04.826Z,15.08
2018-04-23T02:25:08.093Z,15.04
2018-04-23T02:28:11.401Z,15.02
2018-04-23T02:31:14.680Z,14.97
2018-04-23T02:34:17.977Z,14.96
2018-04-23T02:37:22.037Z,14.98
2018-04-23T02:40:25.289Z,15.01
2018-04-23T02:43:28.566Z,15.02
2018-04-23T02:46:31.827Z,14.96
2018-04-23T02:49:35.172Z,14.94
2018-04-23T02:52:38.541Z,14.91
2018-04-23T02:55:41.820Z,14.94
2018-04-23T02:58:45.201Z,14.96
2018-04-23T03:01:48.554Z,14.87
2018-04-23T03:04:51.822Z,14.89
2018-04-23T03:07:55.090Z,14.88
2018-04-23T03:10:58.366Z,14.87
2018-04-23T03:14:02.415Z,14.83
2018-04-23T03:17:05.691Z,14.82
2018-04-23T03:20:08.938Z,14.79
2018-04-23T03:23:12.204Z,14.73
2018-04-23T03:26:15.470Z,14.69
2018-04-23T03:29:19.507Z,14.71
2018-04-23T03:32:22.899Z,14.76
2018-04-23T03:35:26.154Z,14.77
2018-04-23T03:38:29.415Z,14.73
2018-04-23T03:41:32.882Z,14.64
2018-04-23T03:44:36.937Z,14.60
2018-04-23T03:47:40.193Z,14.49
2018-04-23T03:50:44.237Z,14.37
2018-04-23T03:53:47.755Z,14.18
2018-04-23T03:56:51.036Z,14.23
2018-04-23T03:59:54.329Z,14.25
2018-04-23T04:02:57.662Z,14.29
2018-04-23T04:06:00.941Z,14.26
2018-04-23T04:09:04.250Z,14.25
2018-04-23T04:16:13.070Z,14.40
2018-04-23T04:19:17.138Z,14.40
2018-04-23T04:22:20.497Z,14.46
2018-04-23T04:25:23.795Z,14.42
2018-04-23T04:28:27.066Z,14.41
2018-04-23T04:31:30.515Z,14.36
2018-04-23T04:34:33.804Z,14.26
2018-04-23T04:37:41.228Z,14.23
2018-04-23T04:40:44.519Z,14.21
2018-04-23T04:43:47.852Z,14.14
2018-04-23T04:46:53.413Z,14.28
2018-04-23T04:49:57.594Z,14.32
2018-04-23T04:53:01.364Z,14.35
2018-04-23T04:56:05.420Z,14.44
2018-04-23T04:59:08.681Z,14.42
2018-04-23T05:02:12.738Z,14.59
2018-04-23T05:05:16.043Z,14.71
2018-04-23T05:08:19.326Z,14.77
2018-04-23T05:11:22.652Z,14.89
2018-04-23T05:14:26.088Z,15.02
2018-04-23T05:17:30.123Z,15.00
2018-04-23T05:20:33.412Z,15.16
2018-04-23T05:23:36.729Z,15.23
2018-04-23T05:26:40.718Z,15.28
2018-04-23T05:29:44.764Z,15.42
2018-04-23T05:32:48.143Z,15.63
2018-04-23T05:35:51.428Z,15.76
2018-04-23T05:38:55.497Z,15.77
2018-04-23T05:41:58.754Z,16.08
2018-04-23T05:45:03.010Z,16.68
2018-04-23T05:48:06.412Z,17.52
2018-04-23T05:51:09.695Z,18.00
2018-04-23T05:54:12.985Z,17.83
2018-04-23T05:57:16.291Z,18.23
2018-04-23T06:00:19.565Z,18.79
2018-04-23T06:03:22.847Z,19.60
2018-04-23T06:06:26.877Z,20.02
2018-04-23T06:09:30.896Z,20.46
2018-04-23T06:12:34.158Z,21.11
2018-04-23T06:15:38.246Z,21.75
2018-04-23T06:18:41.525Z,21.48
2018-04-23T06:21:44.827Z,21.73
2018-04-23T06:24:48.135Z,22.19
2018-04-23T06:27:51.413Z,21.61
2018-04-23T06:30:54.715Z,21.27
2018-04-23T06:33:58.003Z,21.53
2018-04-23T06:37:01.314Z,21.89
2018-04-23T06:40:04.591Z,22.28
2018-04-23T06:43:07.953Z,21.32
2018-04-23T06:46:11.247Z,21.67
2018-04-23T06:49:14.498Z,21.55
2018-04-23T06:52:17.818Z,21.39
2018-04-23T06:55:22.153Z,22.15
2018-04-23T06:58:31.609Z,23.06
2018-04-23T07:02:06.128Z,23.22
2018-04-23T07:05:12.111Z,23.88
2018-04-23T07:08:15.414Z,23.24
2018-04-23T07:11:19.449Z,23.48
2018-04-23T07:14:22.776Z,23.03
2018-04-23T07:17:26.207Z,23.34
2018-04-23T07:20:29.473Z,23.90
2018-04-23T07:23:32.877Z,24.43
2018-04-23T07:26:36.205Z,23.93
2018-04-23T07:29:39.483Z,23.67
2018-04-23T07:32:42.765Z,23.20
2018-04-23T07:35:46.050Z,23.80
2018-04-23T07:38:49.327Z,24.11
2018-04-23T07:41:53.363Z,24.16
2018-04-23T07:44:56.682Z,24.33
2018-04-23T07:47:59.960Z,24.49
2018-04-23T07:51:03.305Z,24.39
2018-04-23T07:54:06.579Z,24.10
2018-04-23T07:57:09.819Z,23.94
2018-04-23T08:00:13.855Z,23.83
2018-04-23T08:03:17.147Z,23.62
2018-04-23T08:06:20.404Z,24.20
2018-04-23T08:09:23.689Z,23.53
2018-04-23T08:12:27.779Z,23.86
2018-04-23T08:15:31.062Z,23.82
2018-04-23T08:18:34.339Z,23.76
2018-04-23T08:21:38.385Z,23.09
2018-04-23T08:24:41.686Z,22.93
2018-04-23T08:27:44.958Z,23.27
2018-04-23T08:30:49.005Z,23.20
2018-04-23T08:33:52.305Z,23.20
2018-04-23T08:36:55.549Z,23.75
2018-04-23T08:39:58.894Z,24.43
2018-04-23T08:43:02.181Z,24.57
2018-04-23T08:46:06.882Z,24.71
2018-04-23T08:49:10.147Z,24.61
2018-04-23T08:52:13.842Z,24.54
2018-04-23T08:55:17.138Z,25.52
2018-04-23T08:58:20.398Z,24.54
2018-04-23T09:01:24.423Z,25.31
2018-04-23T09:04:27.820Z,25.00
2018-04-23T09:07:31.118Z,25.11
2018-04-23T09:10:35.159Z,23.83
2018-04-23T09:13:38.481Z,24.25
2018-04-23T09:16:41.732Z,25.28
2018-04-23T09:19:45.017Z,25.70
2018-04-23T09:22:49.039Z,25.44
2018-04-23T09:25:52.297Z,25.08
2018-04-23T09:28:55.625Z,23.96
2018-04-23T09:31:59.692Z,23.78
2018-04-23T09:35:03.749Z,23.59
2018-04-23T09:38:07.876Z,24.28
2018-04-23T09:41:11.902Z,24.90
2018-04-23T09:44:15.197Z,24.76
2018-04-23T09:47:18.519Z,25.04
2018-04-23T09:50:21.795Z,25.12
2018-04-23T09:53:25.116Z,25.58
2018-04-23T09:56:28.402Z,25.99
2018-04-23T09:59:32.517Z,26.14
2018-04-23T10:02:35.818Z,26.19
2018-04-23T10:05:39.325Z,26.32
2018-04-23T10:08:42.624Z,26.03
2018-04-23T10:11:46.647Z,26.35
2018-04-23T10:14:50.206Z,26.46
2018-04-23T10:17:53.448Z,26.51
2018-04-23T10:20:57.887Z,25.29
2018-04-23T10:24:01.132Z,24.81
2018-04-23T10:27:04.387Z,24.77
2018-04-23T10:30:07.675Z,25.13
2018-04-23T10:33:10.965Z,25.29
2018-04-23T10:36:14.253Z,25.57
2018-04-23T10:39:17.611Z,25.18
2018-04-23T10:42:20.883Z,24.80
2018-04-23T10:45:24.173Z,25.23
2018-04-23T10:48:27.456Z,25.13
2018-04-23T10:51:30.725Z,25.40
2018-04-23T10:54:34.830Z,24.35
2018-04-23T10:57:38.139Z,24.25
2018-04-23T11:00:41.417Z,24.48
2018-04-23T11:03:44.715Z,24.45
2018-04-23T11:06:48.018Z,24.44
2018-04-23T11:09:51.304Z,23.99
2018-04-23T11:12:55.976Z,24.20
2018-04-23T11:15:59.299Z,24.34
2018-04-23T11:19:02.599Z,24.38
2018-04-23T11:22:05.856Z,24.60
2018-04-23T11:25:09.160Z,24.68
2018-04-23T11:28:13.192Z,25.13
2018-04-23T11:31:16.479Z,24.00
2018-04-23T11:34:20.529Z,24.45
2018-04-23T11:37:23.792Z,24.51
2018-04-23T11:40:27.913Z,24.19
2018-04-23T11:43:31.988Z,24.13
2018-04-23T11:46:35.247Z,24.18
2018-04-23T11:49:38.519Z,24.65
2018-04-23T11:52:42.544Z,24.56
2018-04-23T11:55:45.826Z,24.54
2018-04-23T11:58:49.868Z,24.55
2018-04-23T12:01:53.219Z,24.15
2018-04-23T12:04:56.505Z,24.48
2018-04-23T12:07:59.806Z,24.58
2018-04-23T12:11:03.077Z,25.06
2018-04-23T12:14:06.350Z,25.28
2018-04-23T12:17:09.689Z,23.81
2018-04-23T12:20:12.974Z,24.39
2018-04-23T12:23:16.434Z,24.39
2018-04-23T12:26:20.019Z,24.44
2018-04-23T12:29:24.564Z,23.81
2018-04-23T12:32:28.071Z,23.72
2018-04-23T12:35:31.428Z,23.63
2018-04-23T12:38:34.710Z,24.20
2018-04-23T12:41:38.016Z,24.09
2018-04-23T12:44:41.272Z,24.35
2018-04-23T12:47:44.538Z,24.17
2018-04-23T12:50:47.826Z,24.10
2018-04-23T12:53:51.081Z,24.56
2018-04-23T12:56:54.358Z,24.45
2018-04-23T12:59:57.647Z,23.74
2018-04-23T13:03:10.274Z,24.14
2018-04-23T13:06:14.417Z,23.96
2018-04-23T13:09:17.717Z,24.20
2018-04-23T13:12:21.031Z,24.00
2018-04-23T13:15:24.328Z,24.02
2018-04-23T13:18:28.404Z,24.07
2018-04-23T13:21:31.648Z,23.76
2018-04-23T13:24:35.036Z,23.42
2018-04-23T13:27:38.326Z,23.58
2018-04-23T13:30:41.630Z,24.01
2018-04-23T13:33:44.922Z,23.79
2018-04-23T13:36:48.260Z,24.27
2018-04-23T13:39:51.530Z,24.24
2018-04-23T13:42:55.315Z,24.29
2018-04-23T13:45:58.621Z,24.24
2018-04-23T13:49:01.932Z,24.31
2018-04-23T13:52:05.170Z,24.29
2018-04-23T13:55:09.198Z,24.42
2018-04-23T13:58:13.268Z,24.14
2018-04-23T14:01:16.535Z,23.87
2018-04-23T14:04:19.798Z,23.55
2018-04-23T14:07:23.819Z,23.35
2018-04-23T14:10:27.883Z,23.27
2018-04-23T14:13:31.846Z,22.99
2018-04-23T14:16:35.894Z,22.94
2018-04-23T14:19:39.282Z,23.06
2018-04-23T14:22:42.578Z,23.29
2018-04-23T14:25:45.859Z,23.42
2018-04-23T14:28:49.945Z,22.92
2018-04-23T14:31:53.245Z,22.42
2018-04-23T14:34:56.519Z,22.51
2018-04-23T14:38:00.812Z,22.45
2018-04-23T14:41:04.890Z,22.44
2018-04-23T14:44:08.621Z,21.77
2018-04-23T14:47:12.703Z,21.47
2018-04-23T14:50:15.990Z,21.66
2018-04-23T14:53:19.251Z,21.83
2018-04-23T14:56:22.550Z,21.85
2018-04-23T14:59:25.940Z,21.46
2018-04-23T15:02:29.093Z,21.47
2018-04-23T15:05:32.479Z,21.21
2018-04-23T15:08:36.127Z,20.53
2018-04-23T15:11:40.998Z,20.46
2018-04-23T15:14:44.345Z,20.31
2018-04-23T15:17:47.709Z,20.16
2018-04-23T15:20:51.566Z,19.93
2018-04-23T15:23:55.041Z,19.86
2018-04-23T15:26:58.940Z,19.84
2018-04-23T15:30:02.214Z,20.13
2018-04-23T15:33:05.495Z,20.36
2018-04-23T15:36:08.804Z,20.08
2018-04-23T15:39:12.965Z,19.92
2018-04-23T15:42:16.336Z,19.75
2018-04-23T15:45:19.803Z,19.60
2018-04-23T15:48:23.898Z,19.48
2018-04-23T15:51:27.214Z,19.61
2018-04-23T15:54:31.241Z,19.47
2018-04-23T15:57:34.631Z,19.38
2018-04-23T16:00:38.699Z,19.31
2018-04-23T16:03:41.948Z,19.66
2018-04-23T16:06:45.257Z,19.08
2018-04-23T16:09:48.949Z,19.04
2018-04-23T16:12:53.707Z,18.95
2018-04-23T16:15:56.983Z,18.88
2018-04-23T16:19:00.998Z,18.86
2018-04-23T16:22:04.357Z,18.83
2018-04-23T16:25:07.732Z,18.77
2018-04-23T16:28:11.250Z,18.86
2018-04-23T16:31:14.523Z,18.75
2018-04-23T16:34:17.871Z,18.69
2018-04-23T16:37:21.144Z,18.80
2018-04-23T16:40:24.433Z,18.72
2018-04-23T16:43:28.293Z,18.70
2018-04-23T16:46:32.373Z,18.81
2018-04-23T16:49:35.634Z,18.90
2018-04-23T16:52:39.197Z,18.60
2018-04-23T16:55:42.460Z,18.53
2018-04-23T16:58:45.788Z,18.67
2018-04-23T17:01:49.054Z,18.67
2018-04-23T17:04:52.313Z,18.75
2018-04-23T17:07:56.361Z,18.68
2018-04-23T17:11:00.440Z,18.66
2018-04-23T17:14:04.478Z,18.67
2018-04-23T17:17:07.809Z,18.66
2018-04-23T17:20:11.155Z,18.50
2018-04-23T17:23:15.296Z,18.41
2018-04-23T17:26:18.674Z,18.41
2018-04-23T17:29:21.993Z,18.31
2018-04-23T17:32:25.303Z,18.23
2018-04-23T17:35:28.671Z,18.04
2018-04-23T17:38:32.833Z,18.00
2018-04-23T17:41:36.093Z,18.05
2018-04-23T17:44:39.395Z,17.99
2018-04-23T17:47:43.270Z,18.10
2018-04-23T17:50:46.695Z,17.99
2018-04-23T17:53:50.813Z,18.00
2018-04-23T17:56:54.951Z,18.02
2018-04-23T17:59:58.319Z,17.80
2018-04-23T18:03:02.496Z,17.86
2018-04-23T18:06:06.860Z,17.83
2018-04-23T18:09:10.896Z,17.79
2018-04-23T18:12:14.906Z,17.73
2018-04-23T18:15:18.207Z,17.75
2018-04-23T18:18:21.485Z,17.76
2018-04-23T18:21:25.578Z,17.67
2018-04-23T18:24:28.909Z,17.62
2018-04-23T18:27:32.330Z,17.69
2018-04-23T18:30:35.632Z,17.65
2018-04-23T18:33:39.024Z,17.55
2018-04-23T18:36:42.337Z,17.55
2018-04-23T18:39:45.676Z,17.50
2018-04-23T18:42:48.968Z,17.45
2018-04-23T18:45:52.307Z,17.51
2018-04-23T18:48:55.603Z,17.43
2018-04-23T18:51:59.678Z,17.41
2018-04-23T18:55:03.000Z,17.46
2018-04-23T18:58:06.302Z,17.38
2018-04-23T19:01:09.633Z,17.41
2018-04-23T19:04:12.882Z,17.38
2018-04-23T19:07:16.152Z,17.38
2018-04-23T19:10:19.462Z,17.33
2018-04-23T19:13:23.014Z,17.35
2018-04-23T19:16:27.121Z,17.27
2018-04-23T19:19:31.327Z,17.27
2018-04-23T19:22:34.771Z,17.28
2018-04-23T19:25:38.110Z,17.23
2018-04-23T19:28:41.499Z,17.22
2018-04-23T19:31:45.885Z,17.20
2018-04-23T19:34:49.725Z,17.10
2018-04-23T19:38:10.756Z,17.06
2018-04-23T19:41:14.425Z,17.02
2018-04-23T19:44:18.036Z,17.02
2018-04-23T19:47:21.719Z,16.96
2018-04-23T19:50:25.085Z,16.90
2018-04-23T19:53:28.443Z,16.91
2018-04-23T19:56:31.812Z,16.93
2018-04-23T19:59:35.129Z,16.94
2018-04-23T20:02:38.609Z,16.93
2018-04-23T20:05:41.931Z,16.96
2018-04-23T20:08:46.035Z,16.92
2018-04-23T20:11:49.946Z,16.84
2018-04-23T20:14:53.212Z,16.78
2018-04-23T20:17:56.474Z,16.78
2018-04-23T20:20:59.730Z,16.75
2018-04-23T20:24:02.986Z,16.76
2018-04-23T20:27:06.245Z,16.73
2018-04-23T20:30:09.510Z,16.70
2018-04-23T20:33:13.566Z,16.65
2018-04-23T20:36:16.834Z,16.64
2018-04-23T20:39:20.845Z,16.58
2018-04-23T20:42:24.166Z,16.60
2018-04-23T20:45:27.437Z,16.59
2018-04-23T20:48:31.636Z,16.42
2018-04-23T20:51:35.666Z,16.39
2018-04-23T20:54:39.693Z,16.34
2018-04-23T20:57:42.966Z,16.15
2018-04-23T21:00:47.105Z,16.07
2018-04-23T21:03:50.912Z,16.04
2018-04-23T21:06:54.929Z,15.76
2018-04-23T21:09:59.175Z,15.75
2018-04-23T21:13:02.527Z,15.72
2018-04-23T21:16:06.196Z,15.65
2018-04-23T21:19:09.454Z,15.57
2018-04-23T21:22:13.264Z,15.61
2018-04-23T21:25:17.303Z,15.47
2018-04-23T21:28:20.566Z,15.42
2018-04-23T21:31:24.610Z,15.39
2018-04-23T21:34:27.886Z,15.34
2018-04-23T21:37:32.007Z,15.39
2018-04-23T21:40:35.515Z,15.30
2018-04-23T21:43:39.508Z,15.33
2018-04-23T21:46:42.693Z,15.25
2018-04-23T21:49:45.995Z,15.27
2018-04-23T21:52:50.033Z,15.17
2018-04-23T21:55:53.300Z,15.09
2018-04-23T21:58:56.558Z,15.05
2018-04-23T22:01:59.863Z,15.14
2018-04-23T22:05:03.139Z,15.12
2018-04-23T22:08:06.406Z,15.12
2018-04-23T22:11:10.468Z,15.09
2018-04-23T22:14:13.726Z,15.15
2018-04-23T22:17:17.757Z,15.01
2018-04-23T22:20:21.223Z,15.07
2018-04-23T22:23:24.481Z,15.13
2018-04-23T22:26:27.752Z,15.08
2018-04-23T22:29:31.023Z,15.03
2018-04-23T22:32:35.051Z,15.03
2018-04-23T22:35:39.085Z,14.87
2018-04-23T22:38:42.341Z,14.89
2018-04-23T22:41:45.930Z,14.92
2018-04-23T22:44:49.215Z,14.87
2018-04-23T22:47:52.497Z,14.79
2018-04-23T22:50:55.747Z,14.75
2018-04-23T22:53:59.043Z,14.70
2018-04-23T22:57:03.105Z,14.73
2018-04-23T23:00:06.378Z,14.76
2018-04-23T23:03:10.025Z,14.72
2018-04-23T23:06:13.298Z,14.69
2018-04-23T23:09:16.590Z,14.68
2018-04-23T23:12:19.860Z,14.64
2018-04-23T23:15:23.917Z,14.63
2018-04-23T23:18:27.173Z,14.63
2018-04-23T23:21:31.200Z,14.61
2018-04-23T23:24:34.463Z,14.45
2018-04-23T23:27:37.721Z,14.59
2018-04-23T23:30:41.061Z,14.62
2018-04-23T23:33:44.343Z,14.58
2018-04-23T23:36:47.609Z,14.51
2018-04-23T23:39:51.663Z,14.48
2018-04-23T23:42:55.270Z,14.49
2018-04-23T23:45:58.548Z,14.42
2018-04-23T23:49:01.804Z,14.40
2018-04-23T23:52:05.085Z,14.40
2018-04-23T23:55:09.919Z,14.34
2018-04-23T23:58:13.962Z,14.34
